createdAt,value
2018-04-19T00:00:06.635Z,52.20
2018-04-19T00:02:34.976Z,52.70
2018-04-19T00:05:02.506Z,52.70
2018-04-19T00:07:30.239Z,53.10
2018-04-19T00:09:57.790Z,53.10
2018-04-19T00:12:26.102Z,53.70
2018-04-19T00:14:53.629Z,53.70
2018-04-19T00:20:14.654Z,53.30
2018-04-19T00:22:42.939Z,54.20
2018-04-19T00:25:10.502Z,54.10
2018-04-19T00:30:30.802Z,54.50
2018-04-19T00:32:58.363Z,54.00
2018-04-19T00:35:25.930Z,54.20
2018-04-19T00:37:53.452Z,54.70
2018-04-19T00:40:21.030Z,55.00
2018-04-19T00:42:49.370Z,55.90
2018-04-19T00:45:16.903Z,55.20
2018-04-19T00:47:44.586Z,54.20
2018-04-19T00:50:12.124Z,54.60
2018-04-19T00:52:51.527Z,54.10
2018-04-19T00:55:19.821Z,55.40
2018-04-19T00:57:47.338Z,55.40
2018-04-19T01:00:14.894Z,55.10
2018-04-19T01:02:42.410Z,55.00
2018-04-19T01:05:09.930Z,55.90
2018-04-19T01:07:37.458Z,56.10
2018-04-19T01:10:04.962Z,56.00
2018-04-19T01:12:32.502Z,55.80
2018-04-19T01:15:00.069Z,56.10
2018-04-19T01:17:27.627Z,56.60
2018-04-19T01:19:55.959Z,57.20
2018-04-19T01:22:23.492Z,57.10
2018-04-19T01:24:51.026Z,57.30
2018-04-19T01:27:18.624Z,57.40
2018-04-19T01:29:46.172Z,57.50
2018-04-19T01:32:13.691Z,57.50
2018-04-19T01:34:41.254Z,57.70
2018-04-19T01:37:08.787Z,58.20
2018-04-19T01:39:36.294Z,58.20
2018-04-19T01:42:03.831Z,58.60
2018-04-19T01:44:31.408Z,58.80
2018-04-19T01:46:58.955Z,58.70
2018-04-19T01:49:26.519Z,59.10
2018-04-19T01:51:54.039Z,59.10
2018-04-19T01:54:21.576Z,59.60
2018-04-19T01:56:49.110Z,59.40
2018-04-19T01:59:16.647Z,59.50
2018-04-19T02:01:44.166Z,59.90
2018-04-19T02:04:11.702Z,60.00
2018-04-19T02:06:39.247Z,60.20
2018-04-19T02:09:06.767Z,60.30
2018-04-19T02:11:34.285Z,60.30
2018-04-19T02:14:01.842Z,60.20
2018-04-19T02:19:22.842Z,60.70
2018-04-19T02:21:51.135Z,60.70
2018-04-19T02:24:18.667Z,60.70
2018-04-19T02:26:46.198Z,60.70
2018-04-19T02:29:14.494Z,61.40
2018-04-19T02:31:42.024Z,61.30
2018-04-19T02:34:09.545Z,61.70
2018-04-19T02:36:37.154Z,63.40
2018-04-19T02:39:05.439Z,71.80
2018-04-19T02:41:33.003Z,70.10
2018-04-19T02:44:00.559Z,70.00
2018-04-19T02:46:28.207Z,68.50
2018-04-19T02:48:56.502Z,67.20
2018-04-19T02:51:24.050Z,66.40
2018-04-19T02:53:52.383Z,62.00
2018-04-19T02:56:34.270Z,62.00
2018-04-19T02:59:01.823Z,62.40
2018-04-19T03:01:29.345Z,62.30
2018-04-19T03:03:56.890Z,62.60
2018-04-19T03:06:24.465Z,63.30
2018-04-19T03:08:52.007Z,64.00
2018-04-19T03:11:20.303Z,64.10
2018-04-19T03:13:47.870Z,64.10
2018-04-19T03:16:15.401Z,65.10
2018-04-19T03:18:42.926Z,64.60
2018-04-19T03:21:10.517Z,64.50
2018-04-19T03:23:38.026Z,64.50
2018-04-19T03:26:05.542Z,64.50
2018-04-19T03:28:33.157Z,64.40
2018-04-19T03:31:00.744Z,64.80
2018-04-19T03:33:28.282Z,65.00
2018-04-19T03:35:55.828Z,65.10
2018-04-19T03:38:23.339Z,65.20
2018-04-19T03:40:50.915Z,65.30
2018-04-19T03:43:18.422Z,65.60
2018-04-19T03:45:45.959Z,65.50
2018-04-19T03:48:13.498Z,65.40
2018-04-19T03:50:41.060Z,65.50
2018-04-19T03:53:08.598Z,65.90
2018-04-19T03:55:36.135Z,66.20
2018-04-19T03:58:04.456Z,66.90
2018-04-19T04:00:31.974Z,66.90
2018-04-19T04:02:59.547Z,67.60
2018-04-19T04:05:27.095Z,68.90
2018-04-19T04:07:54.631Z,68.50
2018-04-19T04:10:22.146Z,68.80
2018-04-19T04:12:49.719Z,68.60
2018-04-19T04:15:17.251Z,68.40
2018-04-19T04:18:00.326Z,68.60
2018-04-19T04:20:39.635Z,68.50
2018-04-19T04:23:44.613Z,68.50
2018-04-19T04:26:12.138Z,68.50
2018-04-19T04:28:39.650Z,68.30
2018-04-19T04:31:07.252Z,67.90
2018-04-19T04:33:34.698Z,68.00
2018-04-19T04:36:02.293Z,68.10
2018-04-19T04:38:39.562Z,68.30
2018-04-19T04:41:07.140Z,68.50
2018-04-19T04:43:34.983Z,68.60
2018-04-19T04:46:02.498Z,68.80
2018-04-19T04:48:30.047Z,70.50
2018-04-19T04:50:57.986Z,69.50
2018-04-19T04:53:25.517Z,69.20
2018-04-19T04:55:53.110Z,68.30
2018-04-19T04:58:20.659Z,68.60
2018-04-19T05:00:48.196Z,68.40
2018-04-19T05:03:15.733Z,68.90
2018-04-19T05:05:43.298Z,69.10
2018-04-19T05:08:10.819Z,69.20
2018-04-19T05:10:38.350Z,69.10
2018-04-19T05:13:05.882Z,69.70
2018-04-19T05:15:33.429Z,70.20
2018-04-19T05:18:00.951Z,70.20
2018-04-19T05:20:28.520Z,70.30
2018-04-19T05:22:56.101Z,69.90
2018-04-19T05:25:23.690Z,70.50
2018-04-19T05:27:51.219Z,70.50
2018-04-19T05:30:18.751Z,70.30
2018-04-19T05:32:47.076Z,69.80
2018-04-19T05:35:14.618Z,69.70
2018-04-19T05:37:42.151Z,70.10
2018-04-19T05:40:09.736Z,70.00
2018-04-19T05:42:37.281Z,70.00
2018-04-19T05:45:04.878Z,70.00
2018-04-19T05:47:32.396Z,70.80
2018-04-19T05:49:59.926Z,70.60
2018-04-19T05:52:28.262Z,70.60
2018-04-19T05:54:55.799Z,70.50
2018-04-19T05:57:23.322Z,69.90
2018-04-19T05:59:50.890Z,69.60
2018-04-19T06:02:19.184Z,70.10
2018-04-19T06:04:46.706Z,70.00
2018-04-19T06:07:14.248Z,69.80
2018-04-19T06:09:41.758Z,70.00
2018-04-19T06:12:09.300Z,69.70
2018-04-19T06:14:36.905Z,69.70
2018-04-19T06:17:28.305Z,69.80
2018-04-19T06:19:55.911Z,70.30
2018-04-19T06:22:23.430Z,70.00
2018-04-19T06:24:51.001Z,70.30
2018-04-19T06:27:18.502Z,70.10
2018-04-19T06:29:46.877Z,69.60
2018-04-19T06:32:15.211Z,69.70
2018-04-19T06:34:42.738Z,69.70
2018-04-19T06:37:10.254Z,69.40
2018-04-19T06:39:37.855Z,69.60
2018-04-19T06:42:05.411Z,70.10
2018-04-19T06:44:32.966Z,71.00
2018-04-19T06:47:00.511Z,70.80
2018-04-19T06:49:28.019Z,70.80
2018-04-19T06:51:55.550Z,71.40
2018-04-19T06:54:23.086Z,71.30
2018-04-19T06:56:51.366Z,71.40
2018-04-19T06:59:19.706Z,71.90
2018-04-19T07:01:47.242Z,71.10
2018-04-19T07:04:14.768Z,72.10
2018-04-19T07:07:06.308Z,71.90
2018-04-19T07:09:33.849Z,71.90
2018-04-19T07:12:01.386Z,71.00
2018-04-19T07:14:28.947Z,71.00
2018-04-19T07:16:56.487Z,71.10
2018-04-19T07:19:24.018Z,69.90
2018-04-19T07:21:51.558Z,71.00
2018-04-19T07:24:19.075Z,70.70
2018-04-19T07:26:46.598Z,71.20
2018-04-19T07:29:14.143Z,71.30
2018-04-19T07:31:41.662Z,71.10
2018-04-19T07:34:09.954Z,71.60
2018-04-19T07:36:37.527Z,71.60
2018-04-19T07:39:05.115Z,72.20
2018-04-19T07:41:32.616Z,72.40
2018-04-19T07:44:00.147Z,70.10
2018-04-19T07:46:28.482Z,69.40
2018-04-19T07:48:56.251Z,69.30
2018-04-19T07:51:24.282Z,70.00
2018-04-19T07:53:52.734Z,68.30
2018-04-19T07:56:20.247Z,65.60
2018-04-19T07:58:47.788Z,66.20
2018-04-19T08:01:15.330Z,63.40
2018-04-19T08:03:43.653Z,58.80
2018-04-19T08:06:11.183Z,58.80
2018-04-19T08:08:38.719Z,58.30
2018-04-19T08:11:06.286Z,57.00
2018-04-19T08:13:33.826Z,55.20
2018-04-19T08:16:01.345Z,55.10
2018-04-19T08:18:28.982Z,54.80
2018-04-19T08:20:56.506Z,53.70
2018-04-19T08:23:24.793Z,50.20
2018-04-19T08:25:52.350Z,50.10
2018-04-19T08:28:20.643Z,48.80
2018-04-19T08:30:48.172Z,48.80
2018-04-19T08:33:15.699Z,48.70
2018-04-19T08:35:43.205Z,48.60
2018-04-19T08:38:30.978Z,48.50
2018-04-19T08:40:58.493Z,48.50
2018-04-19T08:43:26.788Z,48.50
2018-04-19T08:45:54.346Z,48.50
2018-04-19T08:48:21.872Z,49.40
2018-04-19T08:50:50.179Z,47.90
2018-04-19T08:53:17.736Z,47.80
2018-04-19T08:55:45.257Z,46.60
2018-04-19T08:58:12.835Z,44.90
2018-04-19T09:00:40.351Z,44.60
2018-04-19T09:03:07.922Z,43.30
2018-04-19T09:05:35.472Z,43.70
2018-04-19T09:08:03.002Z,42.70
2018-04-19T09:10:30.522Z,42.90
2018-04-19T09:12:58.837Z,40.00
2018-04-19T09:15:26.371Z,40.00
2018-04-19T09:17:58.931Z,38.90
2018-04-19T09:20:26.498Z,39.70
2018-04-19T09:22:54.047Z,40.40
2018-04-19T09:25:21.570Z,38.40
2018-04-19T09:27:49.078Z,38.60
2018-04-19T09:30:16.617Z,38.20
2018-04-19T09:32:44.135Z,38.50
2018-04-19T09:35:11.691Z,39.10
2018-04-19T09:37:39.261Z,39.40
2018-04-19T09:40:06.796Z,39.30
2018-04-19T09:42:34.326Z,38.70
2018-04-19T09:45:02.654Z,37.90
2018-04-19T09:47:30.227Z,37.90
2018-04-19T09:49:57.743Z,38.40
2018-04-19T09:52:25.288Z,37.20
2018-04-19T09:54:52.839Z,36.80
2018-04-19T09:57:20.383Z,36.60
2018-04-19T09:59:47.948Z,34.70
2018-04-19T10:02:15.470Z,34.70
2018-04-19T10:04:45.858Z,35.20
2018-04-19T10:07:13.486Z,34.90
2018-04-19T10:09:41.050Z,34.50
2018-04-19T10:12:09.353Z,34.70
2018-04-19T10:14:36.907Z,34.60
2018-04-19T10:17:04.445Z,33.70
2018-04-19T10:19:31.974Z,34.30
2018-04-19T10:21:59.577Z,33.70
2018-04-19T10:24:27.078Z,33.20
2018-04-19T10:26:54.582Z,34.30
2018-04-19T10:29:22.163Z,33.70
2018-04-19T10:31:49.683Z,33.70
2018-04-19T10:34:17.257Z,32.60
2018-04-19T10:36:45.565Z,33.50
2018-04-19T10:39:13.190Z,33.50
2018-04-19T10:41:40.710Z,32.60
2018-04-19T10:44:08.250Z,32.50
2018-04-19T10:46:35.750Z,31.70
2018-04-19T10:49:04.013Z,30.00
2018-04-19T10:51:31.547Z,30.00
2018-04-19T10:53:59.060Z,29.00
2018-04-19T10:56:26.582Z,30.50
2018-04-19T10:58:54.252Z,30.20
2018-04-19T11:01:21.767Z,30.00
2018-04-19T11:03:49.284Z,29.40
2018-04-19T11:06:16.856Z,29.80
2018-04-19T11:08:44.375Z,28.80
2018-04-19T11:11:11.895Z,28.20
2018-04-19T11:13:39.438Z,29.20
2018-04-19T11:16:06.959Z,29.20
2018-04-19T11:18:34.467Z,29.40
2018-04-19T11:21:01.997Z,28.80
2018-04-19T11:23:29.516Z,29.20
2018-04-19T11:25:57.148Z,28.50
2018-04-19T11:28:24.718Z,29.30
2018-04-19T11:30:52.246Z,29.80
2018-04-19T11:33:19.771Z,29.50
2018-04-19T11:35:47.359Z,28.80
2018-04-19T11:38:14.890Z,28.00
2018-04-19T11:40:42.422Z,27.90
2018-04-19T11:43:09.953Z,29.10
2018-04-19T11:45:37.538Z,29.60
2018-04-19T11:48:05.070Z,29.00
2018-04-19T11:50:32.587Z,29.20
2018-04-19T11:53:00.114Z,29.60
2018-04-19T11:55:27.675Z,29.50
2018-04-19T11:58:00.119Z,27.80
2018-04-19T12:00:27.639Z,28.40
2018-04-19T12:02:55.191Z,27.80
2018-04-19T12:05:23.483Z,27.60
2018-04-19T12:07:50.993Z,27.60
2018-04-19T12:10:19.331Z,27.50
2018-04-19T12:12:46.883Z,27.30
2018-04-19T12:15:14.423Z,26.50
2018-04-19T12:17:41.998Z,27.30
2018-04-19T12:20:09.519Z,26.00
2018-04-19T12:22:37.050Z,27.10
2018-04-19T12:25:04.596Z,26.70
2018-04-19T12:27:32.144Z,28.00
2018-04-19T12:29:59.684Z,27.80
2018-04-19T12:32:27.975Z,26.20
2018-04-19T12:34:55.507Z,26.20
2018-04-19T12:37:23.843Z,25.70
2018-04-19T12:39:51.362Z,25.70
2018-04-19T12:42:18.929Z,25.70
2018-04-19T12:44:46.503Z,26.20
2018-04-19T12:47:14.003Z,25.50
2018-04-19T12:49:41.549Z,25.40
2018-04-19T12:52:09.118Z,25.20
2018-04-19T12:54:36.638Z,24.90
2018-04-19T12:57:04.167Z,25.80
2018-04-19T12:59:31.734Z,25.50
2018-04-19T13:01:59.248Z,24.80
2018-04-19T13:04:26.797Z,25.00
2018-04-19T13:06:54.329Z,25.20
2018-04-19T13:09:21.852Z,25.40
2018-04-19T13:11:49.435Z,25.10
2018-04-19T13:14:16.960Z,25.60
2018-04-19T13:16:45.287Z,25.20
2018-04-19T13:19:12.831Z,25.10
2018-04-19T13:21:40.337Z,33.20
2018-04-19T13:24:07.874Z,25.30
2018-04-19T13:26:35.430Z,24.90
2018-04-19T13:29:02.953Z,24.50
2018-04-19T13:31:30.488Z,24.50
2018-04-19T13:33:58.026Z,23.70
2018-04-19T13:36:25.563Z,24.90
2018-04-19T13:38:55.902Z,25.50
2018-04-19T13:41:23.707Z,25.80
2018-04-19T13:43:51.226Z,24.60
2018-04-19T13:46:18.752Z,24.90
2018-04-19T13:48:46.346Z,27.20
2018-04-19T13:51:13.813Z,31.20
2018-04-19T13:53:41.343Z,28.20
2018-04-19T13:56:08.894Z,28.40
2018-04-19T13:58:36.411Z,27.50
2018-04-19T14:01:03.929Z,26.80
2018-04-19T14:03:31.458Z,26.70
2018-04-19T14:05:59.026Z,26.60
2018-04-19T14:08:26.543Z,27.40
2018-04-19T14:10:54.098Z,26.20
2018-04-19T14:13:22.422Z,28.90
2018-04-19T14:15:49.956Z,28.90
2018-04-19T14:18:17.535Z,27.20
2018-04-19T14:20:45.090Z,22.60
2018-04-19T14:23:12.606Z,24.30
2018-04-19T14:25:40.150Z,25.70
2018-04-19T14:28:07.711Z,26.00
2018-04-19T14:30:36.031Z,27.90
2018-04-19T14:33:03.643Z,27.70
2018-04-19T14:35:31.561Z,28.10
2018-04-19T14:37:59.099Z,27.80
2018-04-19T14:40:26.603Z,26.90
2018-04-19T14:42:54.511Z,27.30
2018-04-19T14:45:22.819Z,22.00
2018-04-19T14:47:50.319Z,22.00
2018-04-19T14:50:17.857Z,21.20
2018-04-19T14:52:45.413Z,21.60
2018-04-19T14:55:12.952Z,21.60
2018-04-19T14:57:40.922Z,21.20
2018-04-19T15:00:08.458Z,21.60
2018-04-19T15:02:35.983Z,20.40
2018-04-19T15:05:03.578Z,21.20
2018-04-19T15:07:31.134Z,21.40
2018-04-19T15:09:58.721Z,21.00
2018-04-19T15:12:26.265Z,20.80
2018-04-19T15:14:53.826Z,21.20
2018-04-19T15:17:21.385Z,20.80
2018-04-19T15:19:48.929Z,21.10
2018-04-19T15:22:16.505Z,20.70
2018-04-19T15:24:44.060Z,21.40
2018-04-19T15:27:11.594Z,21.60
2018-04-19T15:29:39.133Z,21.10
2018-04-19T15:32:06.679Z,20.70
2018-04-19T15:34:34.219Z,21.00
2018-04-19T15:37:01.753Z,21.80
2018-04-19T15:39:29.310Z,20.90
2018-04-19T15:41:57.175Z,21.40
2018-04-19T15:44:24.682Z,21.30
2018-04-19T15:46:52.207Z,21.90
2018-04-19T15:49:19.751Z,22.60
2018-04-19T15:51:47.281Z,21.40
2018-04-19T15:54:14.844Z,21.60
2018-04-19T15:56:42.382Z,24.30
2018-04-19T15:59:09.923Z,24.00
2018-04-19T16:01:37.442Z,23.10
2018-04-19T16:04:04.982Z,23.50
2018-04-19T16:06:32.502Z,23.20
2018-04-19T16:09:00.028Z,24.60
2018-04-19T16:11:27.587Z,25.70
2018-04-19T16:13:55.113Z,26.00
2018-04-19T16:16:22.630Z,25.20
2018-04-19T16:18:50.189Z,25.60
2018-04-19T16:21:17.707Z,26.40
2018-04-19T16:23:45.225Z,26.00
2018-04-19T16:26:12.774Z,25.80
2018-04-19T16:28:40.302Z,25.90
2018-04-19T16:31:07.845Z,25.70
2018-04-19T16:33:35.357Z,25.30
2018-04-19T16:36:02.964Z,24.60
2018-04-19T16:38:30.506Z,23.00
2018-04-19T16:40:58.074Z,24.50
2018-04-19T16:43:25.610Z,24.50
2018-04-19T16:45:53.871Z,21.90
2018-04-19T16:48:22.194Z,23.10
2018-04-19T16:50:49.763Z,23.10
2018-04-19T16:53:17.343Z,24.90
2018-04-19T16:55:44.942Z,22.70
2018-04-19T16:58:23.087Z,23.80
2018-04-19T17:00:50.602Z,23.80
2018-04-19T17:03:18.123Z,23.60
2018-04-19T17:05:45.650Z,24.60
2018-04-19T17:08:13.213Z,24.90
2018-04-19T17:10:40.788Z,25.30
2018-04-19T17:13:08.318Z,26.00
2018-04-19T17:15:35.831Z,26.10
2018-04-19T17:18:13.090Z,26.70
2018-04-19T17:20:40.654Z,27.20
2018-04-19T17:23:08.183Z,27.30
2018-04-19T17:25:35.731Z,27.70
2018-04-19T17:28:03.289Z,27.90
2018-04-19T17:30:30.778Z,28.30
2018-04-19T17:32:58.360Z,28.30
2018-04-19T17:35:26.683Z,29.10
2018-04-19T17:37:54.235Z,29.10
2018-04-19T17:40:21.795Z,30.10
2018-04-19T17:42:49.326Z,29.60
2018-04-19T17:45:17.616Z,30.70
2018-04-19T17:50:38.007Z,31.70
2018-04-19T17:53:05.645Z,31.00
2018-04-19T17:55:33.234Z,31.00
2018-04-19T17:58:00.800Z,31.80
2018-04-19T18:00:28.355Z,32.30
2018-04-19T18:02:55.923Z,33.20
2018-04-19T18:05:23.473Z,32.80
2018-04-19T18:07:51.831Z,33.20
2018-04-19T18:10:19.378Z,33.20
2018-04-19T18:12:46.898Z,33.30
2018-04-19T18:15:14.419Z,32.70
2018-04-19T18:20:44.834Z,31.80
2018-04-19T18:23:12.392Z,31.80
2018-04-19T18:25:39.915Z,31.80
2018-04-19T18:28:07.638Z,31.70
2018-04-19T18:30:35.214Z,31.60
2018-04-19T18:33:02.779Z,31.30
2018-04-19T18:35:30.298Z,31.40
2018-04-19T18:37:57.851Z,31.20
2018-04-19T18:40:25.418Z,31.40
2018-04-19T18:42:52.927Z,31.20
2018-04-19T18:45:20.456Z,32.40
2018-04-19T18:47:48.225Z,32.30
2018-04-19T18:50:15.759Z,32.30
2018-04-19T18:52:43.293Z,32.10
2018-04-19T18:55:10.830Z,32.10
2018-04-19T18:57:38.351Z,31.90
2018-04-19T19:00:05.943Z,32.30
2018-04-19T19:02:33.454Z,32.50
2018-04-19T19:05:01.019Z,32.60
2018-04-19T19:07:28.571Z,32.70
2018-04-19T19:09:56.086Z,32.60
2018-04-19T19:12:23.595Z,32.90
2018-04-19T19:14:51.145Z,33.30
2018-04-19T19:17:35.602Z,32.90
2018-04-19T19:20:09.771Z,33.00
2018-04-19T19:22:37.282Z,33.00
2018-04-19T19:25:05.562Z,32.90
2018-04-19T19:27:42.813Z,32.90
2018-04-19T19:30:10.339Z,33.20
2018-04-19T19:32:37.871Z,32.90
2018-04-19T19:35:05.414Z,32.80
2018-04-19T19:37:32.954Z,32.80
2018-04-19T19:40:00.479Z,32.80
2018-04-19T19:42:28.031Z,32.80
2018-04-19T19:44:55.550Z,32.80
2018-04-19T19:47:23.831Z,33.50
2018-04-19T19:49:51.374Z,33.50
2018-04-19T19:52:19.693Z,33.50
2018-04-19T19:54:47.219Z,33.50
2018-04-19T19:57:14.759Z,33.40
2018-04-19T19:59:42.307Z,33.20
2018-04-19T20:02:09.825Z,32.80
2018-04-19T20:04:37.347Z,32.60
2018-04-19T20:07:04.906Z,32.70
2018-04-19T20:09:32.418Z,32.90
2018-04-19T20:11:59.931Z,32.00
2018-04-19T20:14:27.483Z,31.80
2018-04-19T20:16:55.003Z,32.30
2018-04-19T20:19:22.514Z,32.70
2018-04-19T20:21:50.727Z,33.50
2018-04-19T20:24:18.238Z,33.70
2018-04-19T20:26:45.795Z,34.40
2018-04-19T20:29:13.339Z,34.80
2018-04-19T20:31:40.875Z,35.70
2018-04-19T20:34:08.402Z,35.80
2018-04-19T20:36:35.963Z,36.30
2018-04-19T20:39:03.490Z,36.90
2018-04-19T20:41:31.059Z,36.50
2018-04-19T20:43:58.566Z,37.20
2018-04-19T20:46:26.100Z,37.20
2018-04-19T20:49:13.137Z,37.70
2018-04-19T20:51:40.651Z,38.70
2018-04-19T20:54:08.163Z,38.20
2018-04-19T20:56:35.710Z,37.70
2018-04-19T20:59:03.230Z,37.90
2018-04-19T21:01:30.768Z,37.30
2018-04-19T21:03:58.293Z,37.40
2018-04-19T21:06:25.858Z,37.50
2018-04-19T21:08:53.426Z,38.60
2018-04-19T21:11:20.970Z,37.00
2018-04-19T21:13:48.499Z,36.60
2018-04-19T21:16:16.014Z,38.00
2018-04-19T21:18:43.530Z,39.00
2018-04-19T21:21:11.070Z,39.10
2018-04-19T21:23:38.610Z,39.30
2018-04-19T21:26:06.162Z,40.30
2018-04-19T21:28:33.731Z,40.50
2018-04-19T21:31:01.261Z,41.00
2018-04-19T21:33:28.796Z,41.20
2018-04-19T21:35:56.363Z,41.70
2018-04-19T21:38:23.943Z,42.20
2018-04-19T21:40:51.458Z,41.90
2018-04-19T21:43:19.022Z,42.30
2018-04-19T21:45:46.522Z,42.80
2018-04-19T21:48:14.080Z,43.00
2018-04-19T21:50:41.622Z,43.70
2018-04-19T21:53:09.919Z,43.90
2018-04-19T21:55:37.453Z,43.90
2018-04-19T21:58:05.048Z,44.60
2018-04-19T22:00:32.583Z,45.10
2018-04-19T22:03:00.110Z,45.00
2018-04-19T22:05:27.662Z,45.20
2018-04-19T22:07:55.207Z,45.50
2018-04-19T22:10:22.723Z,45.00
2018-04-19T22:12:50.317Z,45.20
2018-04-19T22:15:17.838Z,44.50
2018-04-19T22:17:50.557Z,45.00
2018-04-19T22:20:18.123Z,44.70
2018-04-19T22:22:45.653Z,43.90
2018-04-19T22:25:13.191Z,43.90
2018-04-19T22:27:50.428Z,43.80
2018-04-19T22:30:17.966Z,43.20
2018-04-19T22:32:45.471Z,41.30
2018-04-19T22:35:13.770Z,41.50
2018-04-19T22:37:41.307Z,41.40
2018-04-19T22:40:08.847Z,41.60
2018-04-19T22:42:36.379Z,42.50
2018-04-19T22:45:03.995Z,42.30
2018-04-19T22:47:31.480Z,41.90
2018-04-19T22:49:58.994Z,42.70
2018-04-19T22:52:27.323Z,43.80
2018-04-19T22:54:54.838Z,43.80
2018-04-19T22:57:23.128Z,44.70
2018-04-19T22:59:50.690Z,44.70
2018-04-19T23:02:18.211Z,44.90
2018-04-19T23:04:45.743Z,46.10
2018-04-19T23:07:13.274Z,46.80
2018-04-19T23:09:40.815Z,46.60
2018-04-19T23:12:08.362Z,46.70
2018-04-19T23:14:36.681Z,48.30
2018-04-19T23:17:04.191Z,48.30
2018-04-19T23:19:31.778Z,48.60
2018-04-19T23:21:59.358Z,49.10
2018-04-19T23:24:26.878Z,49.90
2018-04-19T23:26:54.394Z,50.20
2018-04-19T23:29:21.966Z,50.30
2018-04-19T23:31:49.557Z,50.70
2018-04-19T23:34:17.098Z,51.20
2018-04-19T23:36:44.677Z,51.50
2018-04-19T23:39:12.234Z,51.50
2018-04-19T23:41:39.801Z,51.70
2018-04-19T23:44:07.318Z,52.10
2018-04-19T23:46:34.849Z,52.40
2018-04-19T23:49:02.411Z,52.70
2018-04-19T23:51:29.913Z,53.10
2018-04-19T23:53:58.233Z,52.90
2018-04-19T23:56:25.770Z,52.90
2018-04-19T23:58:53.411Z,52.70
